< < Back
Terminal Aerodrome Forecast


Current Version              Previous Versions:   1  2  3  4  5  6  7  8  9  

Terminal Aerodrome Forecast

396
FTUS44 KBMX 181700
TAFMGM
TAF
KMGM 181723Z 1818/1918 VRB04KT P6SM SCT250=

Latest METAR

855
SAUS80 KWBC 182100 RRA
MTRMGM
METAR KMGM 182053Z AUTO 03006KT 10SM CLR 33/13 A2991 RMK AO2 SLP126
T03280133 56015


USA.gov is the U.S. government's official web portal to all federal, state and local government web resources and services.